Time;durP1;ratioP1;P1;durP2;ratioP2;P2;SDS_P1;SDS_P2;PMS_P1;PMS_P2;Temp;Humidity;BMP_temperature;BMP_pressure;BME280_temperature;BME280_humidity;BME280_pressure;Samples;Min_cycle;Max_cycle;Signal;HPM_P1;HPM_P2
2022/05/19 00:01:48;;;;;;;;;;;;;;;16.51;48.57;101790.84;5064152;28;852;-55
2022/05/19 00:04:14;;;;;;;;;;;;;;;16.88;45.05;101804.09;5058631;28;833;-55
2022/05/19 00:06:39;;;;;;;;;;;;;;;16.91;43.62;101809.13;5056441;28;873;-55
2022/05/19 00:09:04;;;;;;;;;;;;;;;16.95;42.85;101802.03;5056338;28;826;-55
2022/05/19 00:11:31;;;;;;;;;;;;;;;17.12;43.15;101803.94;5056170;28;842;-55
2022/05/19 00:13:57;;;;;;;;;;;;;;;17.28;44.96;101803.09;5058945;28;1997;-55
2022/05/19 00:16:22;;;;;;;;;;;;;;;17.48;47.02;101807.22;5066589;28;993;-55
2022/05/19 00:18:48;;;;;;;;;;;;;;;17.75;48.74;101808.13;5056343;28;798;-54
2022/05/19 00:21:13;;;;;;;;;;;;;;;17.95;49.45;101809.47;5056090;28;1039;-55
2022/05/19 00:23:39;;;;;;;;;;;;;;;18.11;50.35;101805.78;5056732;28;819;-54
2022/05/19 00:26:04;;;;;;;;;;;;;;;18.26;50.58;101809.81;5055537;28;881;-55
2022/05/19 00:28:29;;;;;;;;;;;;;;;18.42;50.79;101806.09;5062713;28;830;-55
2022/05/19 00:30:55;;;;;;;;;;;;;;;17.66;52.94;101804.16;5062445;28;846;-54
2022/05/19 00:33:20;;;;;;;;;;;;;;;17.41;53.31;101801.88;5056398;28;814;-55
2022/05/19 00:35:46;;;;;;;;;;;;;;;16.86;53.71;101800.78;5056266;28;1910;-55
2022/05/19 00:38:11;;;;;;;;;;;;;;;16.70;53.36;101792.28;5056200;28;790;-54
2022/05/19 00:40:37;;;;;;;;;;;;;;;17.34;50.00;101796.56;5062188;28;809;-55
2022/05/19 00:43:02;;;;;;;;;;;;;;;17.50;48.70;101796.78;5056475;28;701;-54
2022/05/19 00:45:31;;;;;;;;;;;;;;;17.57;47.86;101790.00;5037626;28;1271;-54
2022/05/19 00:48:01;;;;;;;;;;;;;;;17.55;47.15;101794.09;5045013;28;815;-55
2022/05/19 00:50:27;;;;;;;;;;;;;;;17.51;46.97;101796.50;5050459;28;1079;-54
2022/05/19 00:52:53;;;;;;;;;;;;;;;17.53;46.58;101799.00;5069179;28;810;-54
2022/05/19 00:55:27;;;;;;;;;;;;;;;17.58;46.74;101794.41;5037682;28;1910;-55
2022/05/19 00:57:55;;;;;;;;;;;;;;;17.62;46.55;101794.75;5069059;28;803;-54
2022/05/19 01:00:21;;;;;;;;;;;;;;;17.61;46.58;101790.31;5074355;28;940;-54
2022/05/19 01:02:50;;;;;;;;;;;;;;;17.68;46.50;101796.44;5055607;28;826;-55
2022/05/19 01:05:24;;;;;;;;;;;;;;;17.62;46.48;101797.50;5043688;28;884;-55
2022/05/19 01:07:51;;;;;;;;;;;;;;;17.65;46.83;101796.97;5055633;28;837;-55
2022/05/19 01:10:20;;;;;;;;;;;;;;;17.69;46.55;101798.13;5038279;28;790;-55
2022/05/19 01:12:46;;;;;;;;;;;;;;;17.74;46.45;101802.84;5055827;28;789;-56
2022/05/19 01:15:11;;;;;;;;;;;;;;;17.72;46.62;101805.84;5056862;28;1957;-56
2022/05/19 01:17:37;;;;;;;;;;;;;;;17.64;46.67;101797.22;5055505;28;850;-55
2022/05/19 01:20:04;;;;;;;;;;;;;;;17.71;46.25;101800.63;5062153;28;830;-55
2022/05/19 01:22:42;;;;;;;;;;;;;;;17.70;46.18;101805.28;5040038;28;885;-55
2022/05/19 01:25:07;;;;;;;;;;;;;;;17.67;45.69;101811.31;5059060;28;829;-55
2022/05/19 01:27:33;;;;;;;;;;;;;;;17.64;45.61;101811.81;5059268;28;825;-55
2022/05/19 01:30:01;;;;;;;;;;;;;;;17.63;45.27;101815.66;5059721;28;806;-55
2022/05/19 01:32:27;;;;;;;;;;;;;;;17.67;45.27;101810.47;5064526;28;814;-55
2022/05/19 01:34:52;;;;;;;;;;;;;;;17.65;45.30;101802.47;5059077;28;1902;-55
2022/05/19 01:37:18;;;;;;;;;;;;;;;17.70;45.18;101804.47;5059356;28;778;-56
2022/05/19 01:40:00;;;;;;;;;;;;;;;17.64;45.46;101803.56;5041231;28;1253;-55
2022/05/19 01:42:38;;;;;;;;;;;;;;;17.64;45.45;101800.81;5042195;28;843;-55
2022/05/19 01:45:13;;;;;;;;;;;;;;;17.60;45.37;101805.19;5043668;28;899;-55
2022/05/19 01:47:38;;;;;;;;;;;;;;;17.63;45.26;101793.66;5060110;28;937;-55
2022/05/19 01:50:09;;;;;;;;;;;;;;;17.60;45.38;101799.69;5059190;28;759;-55
2022/05/19 01:52:35;;;;;;;;;;;;;;;17.68;45.30;101801.13;5058832;28;811;-55
2022/05/19 01:55:06;;;;;;;;;;;;;;;17.65;45.42;101801.66;5058590;28;1898;-55
2022/05/19 01:57:33;;;;;;;;;;;;;;;17.60;45.29;101799.69;5059046;28;822;-55
2022/05/19 02:00:16;;;;;;;;;;;;;;;17.62;45.43;101798.31;5077519;28;809;-55
2022/05/19 02:02:44;;;;;;;;;;;;;;;17.60;45.18;101800.50;5058451;28;861;-55
2022/05/19 02:05:13;;;;;;;;;;;;;;;17.56;45.18;101804.03;5058479;28;818;-54
2022/05/19 02:07:39;;;;;;;;;;;;;;;17.60;45.14;101802.44;5040228;28;1148;-55
2022/05/19 02:10:05;;;;;;;;;;;;;;;17.55;45.29;101794.91;5063088;28;821;-55
2022/05/19 02:12:33;;;;;;;;;;;;;;;17.67;45.23;101803.06;5058542;28;829;-55
2022/05/19 02:14:59;;;;;;;;;;;;;;;17.61;45.24;101798.56;5058570;28;1913;-55
2022/05/19 02:17:25;;;;;;;;;;;;;;;17.62;45.38;101803.00;5040039;28;850;-55
2022/05/19 02:19:52;;;;;;;;;;;;;;;17.61;45.18;101804.06;5053552;28;866;-55
2022/05/19 02:22:18;;;;;;;;;;;;;;;17.57;45.19;101808.41;5068993;28;843;-56
2022/05/19 02:24:45;;;;;;;;;;;;;;;17.57;45.24;101805.66;5058498;28;876;-56
2022/05/19 02:27:18;;;;;;;;;;;;;;;17.58;45.12;101812.84;5058336;28;1415;-56
2022/05/19 02:29:44;;;;;;;;;;;;;;;17.58;45.19;101807.34;5052611;28;1098;-55
2022/05/19 02:32:09;;;;;;;;;;;;;;;17.55;45.24;101813.34;5063714;28;766;-55
2022/05/19 02:34:35;;;;;;;;;;;;;;;17.56;45.18;101821.34;5063856;28;1910;-55
2022/05/19 02:37:00;;;;;;;;;;;;;;;17.55;44.80;101813.34;5057926;28;806;-55
2022/05/19 02:39:26;;;;;;;;;;;;;;;17.58;45.00;101812.84;5057648;28;826;-56
2022/05/19 02:41:51;;;;;;;;;;;;;;;17.59;45.10;101815.31;5058343;28;826;-56
2022/05/19 02:44:16;;;;;;;;;;;;;;;17.53;45.25;101815.50;5057659;28;827;-56
2022/05/19 02:46:42;;;;;;;;;;;;;;;17.56;45.19;101815.03;5067560;28;898;-57
2022/05/19 02:49:07;;;;;;;;;;;;;;;17.54;45.06;101817.19;5059594;28;799;-55
2022/05/19 02:51:33;;;;;;;;;;;;;;;17.52;45.09;101819.38;5057712;28;878;-56
2022/05/19 02:53:58;;;;;;;;;;;;;;;17.56;44.92;101826.03;5057463;28;1934;-56
2022/05/19 02:56:23;;;;;;;;;;;;;;;17.61;45.30;101815.06;5058196;28;694;-55
2022/05/19 02:58:49;;;;;;;;;;;;;;;17.52;45.26;101819.38;5057169;28;726;-55
2022/05/19 03:01:14;;;;;;;;;;;;;;;17.56;45.26;101831.53;5063705;28;820;-55
2022/05/19 03:03:40;;;;;;;;;;;;;;;17.52;45.10;101830.38;5057512;28;782;-55
2022/05/19 03:06:05;;;;;;;;;;;;;;;17.52;45.24;101827.63;5057416;28;1133;-55
2022/05/19 03:08:30;;;;;;;;;;;;;;;17.57;45.02;101828.50;5057819;28;808;-55
2022/05/19 03:10:56;;;;;;;;;;;;;;;17.56;45.14;101839.78;5057545;28;863;-56
2022/05/19 03:13:22;;;;;;;;;;;;;;;17.56;45.32;101831.53;5057131;28;1237;-56
2022/05/19 03:15:48;;;;;;;;;;;;;;;17.54;45.13;101839.19;5062455;28;1993;-56
2022/05/19 03:18:14;;;;;;;;;;;;;;;17.58;45.26;101829.34;5071212;28;1332;-55
2022/05/19 03:20:39;;;;;;;;;;;;;;;17.56;45.45;101829.59;5076118;28;877;-55
2022/05/19 03:23:05;;;;;;;;;;;;;;;17.57;45.26;101828.50;5076309;28;806;-55
2022/05/19 03:25:30;;;;;;;;;;;;;;;17.61;45.00;101834.31;5071353;28;777;-55
2022/05/19 03:27:56;;;;;;;;;;;;;;;17.56;44.95;101837.03;5056976;28;774;-55
2022/05/19 03:30:22;;;;;;;;;;;;;;;17.56;44.99;101837.03;5060539;28;805;-55
2022/05/19 03:32:47;;;;;;;;;;;;;;;17.56;45.13;101840.59;5076261;28;948;-56
2022/05/19 03:35:13;;;;;;;;;;;;;;;17.53;44.95;101838.34;5075818;28;1906;-55
2022/05/19 03:37:38;;;;;;;;;;;;;;;17.56;44.88;101839.78;5074777;28;895;-53
2022/05/19 03:40:04;;;;;;;;;;;;;;;17.60;44.88;101843.69;5057841;28;854;-54
2022/05/19 03:42:29;;;;;;;;;;;;;;;17.58;45.00;101843.09;5064268;28;1103;-52
2022/05/19 03:44:55;;;;;;;;;;;;;;;17.60;45.00;101840.94;5064229;28;1285;-53
2022/05/19 03:47:20;;;;;;;;;;;;;;;17.61;44.94;101840.66;5064156;28;1181;-51
2022/05/19 03:49:46;;;;;;;;;;;;;;;17.55;44.94;101838.09;5055829;28;994;-51
2022/05/19 03:52:11;;;;;;;;;;;;;;;17.65;45.08;101845.66;5073511;28;834;-52
2022/05/19 03:54:36;;;;;;;;;;;;;;;17.63;44.99;101848.66;5075538;28;1979;-54
2022/05/19 03:57:02;;;;;;;;;;;;;;;17.63;45.25;101851.41;5074351;28;1381;-53
2022/05/19 03:59:27;;;;;;;;;;;;;;;17.63;45.47;101851.41;5063618;28;743;-57
2022/05/19 04:01:53;;;;;;;;;;;;;;;17.66;45.29;101852.84;5056473;28;962;-57
2022/05/19 04:04:18;;;;;;;;;;;;;;;17.54;45.01;101855.69;5064105;28;1240;-55
2022/05/19 04:06:44;;;;;;;;;;;;;;;17.57;44.98;101853.25;5059033;28;769;-56
2022/05/19 04:09:09;;;;;;;;;;;;;;;17.62;45.00;101858.81;5065993;28;989;-55
2022/05/19 04:11:35;;;;;;;;;;;;;;;17.60;45.12;101854.69;5056141;28;873;-56
2022/05/19 04:14:00;;;;;;;;;;;;;;;17.63;45.14;101854.16;5056224;28;1965;-56
2022/05/19 04:16:25;;;;;;;;;;;;;;;17.64;45.14;101855.81;5058794;28;1171;-56
2022/05/19 04:18:51;;;;;;;;;;;;;;;17.61;44.79;101857.19;5057194;28;1287;-58
2022/05/19 04:21:16;;;;;;;;;;;;;;;17.62;45.07;101863.50;5060770;28;981;-56
2022/05/19 04:23:42;;;;;;;;;;;;;;;17.61;45.00;101857.19;5075568;28;936;-58
2022/05/19 04:26:07;;;;;;;;;;;;;;;17.55;44.90;101862.84;5056593;28;943;-59
2022/05/19 04:28:33;;;;;;;;;;;;;;;17.59;44.95;101851.09;5074795;28;867;-58
2022/05/19 04:31:00;;;;;;;;;;;;;;;17.55;44.83;101849.09;5044083;28;1062;-65
2022/05/19 04:33:26;;;;;;;;;;;;;;;17.60;44.90;101849.19;5057285;28;770;-61
2022/05/19 04:35:51;;;;;;;;;;;;;;;17.60;44.87;101854.69;5055996;28;1906;-63
2022/05/19 04:38:17;;;;;;;;;;;;;;;17.60;45.08;101863.75;5055887;28;842;-59
2022/05/19 04:40:43;;;;;;;;;;;;;;;17.56;45.02;101859.03;5057063;28;1480;-59
2022/05/19 04:43:08;;;;;;;;;;;;;;;17.60;44.70;101862.94;5057745;28;798;-60
2022/05/19 04:45:34;;;;;;;;;;;;;;;17.57;44.83;101863.41;5056406;28;852;-57
2022/05/19 04:47:59;;;;;;;;;;;;;;;17.55;44.72;101868.34;5058219;28;1448;-57
2022/05/19 04:50:25;;;;;;;;;;;;;;;17.54;44.71;101863.94;5071794;28;1024;-57
2022/05/19 04:52:51;;;;;;;;;;;;;;;17.45;44.88;101860.78;5070705;28;1214;-57
2022/05/19 04:55:16;;;;;;;;;;;;;;;17.52;44.45;101868.88;5061948;28;1979;-58
2022/05/19 04:57:42;;;;;;;;;;;;;;;17.49;44.46;101870.19;5075679;28;703;-57
2022/05/19 05:00:08;;;;;;;;;;;;;;;17.52;44.64;101858.69;5076581;28;920;-59
2022/05/19 05:02:33;;;;;;;;;;;;;;;17.59;44.91;101864.84;5066538;28;805;-58
2022/05/19 05:04:59;;;;;;;;;;;;;;;17.60;44.79;101871.19;5074932;28;1348;-57
2022/05/19 05:07:24;;;;;;;;;;;;;;;17.58;44.78;101859.59;5073482;28;854;-58
2022/05/19 05:09:50;;;;;;;;;;;;;;;17.61;44.90;101864.56;5059779;28;811;-57
2022/05/19 05:12:15;;;;;;;;;;;;;;;17.58;44.85;101862.34;5059673;28;790;-57
2022/05/19 05:14:41;;;;;;;;;;;;;;;17.56;44.74;101865.34;5059387;28;1965;-57
2022/05/19 05:17:06;;;;;;;;;;;;;;;17.54;44.90;101869.44;5062529;28;861;-56
2022/05/19 05:19:32;;;;;;;;;;;;;;;17.56;44.62;101870.03;5059784;28;749;-59
2022/05/19 05:21:58;;;;;;;;;;;;;;;17.58;44.79;101876.09;5070653;28;1138;-57
2022/05/19 05:24:23;;;;;;;;;;;;;;;17.67;44.64;101874.59;5074606;28;877;-58
2022/05/19 05:26:49;;;;;;;;;;;;;;;17.62;44.61;101880.81;5059302;28;816;-58
2022/05/19 05:29:14;;;;;;;;;;;;;;;17.62;44.97;101886.31;5058837;28;866;-57
2022/05/19 05:31:40;;;;;;;;;;;;;;;17.59;44.80;101875.84;5065419;28;820;-55
2022/05/19 05:34:05;;;;;;;;;;;;;;;17.64;44.95;101893.50;5065622;28;1985;-57
2022/05/19 05:36:31;;;;;;;;;;;;;;;17.62;45.03;101893.75;5063654;28;1170;-57
2022/05/19 05:38:57;;;;;;;;;;;;;;;17.68;44.92;101894.66;5065863;28;1131;-56
2022/05/19 05:41:22;;;;;;;;;;;;;;;17.62;44.81;101891.00;5060244;28;786;-58
2022/05/19 05:43:48;;;;;;;;;;;;;;;17.61;44.78;101895.69;5059002;28;923;-58
2022/05/19 05:46:14;;;;;;;;;;;;;;;17.62;44.74;101891.81;5062512;28;976;-57
2022/05/19 05:48:40;;;;;;;;;;;;;;;17.65;44.57;101892.41;5060913;28;830;-58
2022/05/19 05:51:06;;;;;;;;;;;;;;;17.62;44.65;101891.00;5058909;28;1045;-57
2022/05/19 05:53:31;;;;;;;;;;;;;;;17.60;44.49;101884.94;5058677;28;837;-56
2022/05/19 05:55:57;;;;;;;;;;;;;;;17.57;44.82;101894.53;5058134;28;1902;-57
2022/05/19 05:58:25;;;;;;;;;;;;;;;17.64;44.72;101888.81;5060589;28;865;-58
2022/05/19 06:00:51;;;;;;;;;;;;;;;17.65;45.20;101896.00;5060097;28;963;-57
2022/05/19 06:03:17;;;;;;;;;;;;;;;17.65;45.33;101893.25;5061296;28;891;-57
2022/05/19 06:05:42;;;;;;;;;;;;;;;17.54;45.68;101896.94;5058433;28;834;-60
2022/05/19 06:08:08;;;;;;;;;;;;;;;17.62;45.62;101894.56;5061775;28;1135;-60
2022/05/19 06:10:33;;;;;;;;;;;;;;;17.61;45.36;101901.19;5067421;28;1385;-60
2022/05/19 06:12:59;;;;;;;;;;;;;;;17.62;45.57;101902.00;5069698;28;1117;-61
2022/05/19 06:15:24;;;;;;;;;;;;;;;17.66;45.32;101897.66;5066915;28;1992;-60
2022/05/19 06:17:50;;;;;;;;;;;;;;;17.66;45.22;101900.41;5072360;28;1292;-60
2022/05/19 06:20:16;;;;;;;;;;;;;;;17.75;45.50;101906.31;5070544;28;773;-60
2022/05/19 06:22:43;;;;;;;;;;;;;;;17.81;45.87;101904.44;5060182;28;826;-62
2022/05/19 06:25:08;;;;;;;;;;;;;;;17.85;45.85;101909.22;5064780;28;814;-61
2022/05/19 06:27:34;;;;;;;;;;;;;;;17.84;46.13;101903.94;5063159;28;1266;-60
2022/05/19 06:29:59;;;;;;;;;;;;;;;17.85;45.61;101906.47;5063956;28;1390;-63
2022/05/19 06:32:24;;;;;;;;;;;;;;;17.83;45.22;101905.88;5058059;28;1016;-57
2022/05/19 06:34:50;;;;;;;;;;;;;;;17.84;45.04;101910.28;5060357;28;1915;-61
2022/05/19 06:37:15;;;;;;;;;;;;;;;17.80;44.96;101909.13;5067326;28;972;-57
2022/05/19 06:39:41;;;;;;;;;;;;;;;17.82;45.09;101919.88;5076906;28;837;-59
2022/05/19 06:42:14;;;;;;;;;;;;;;;17.84;44.65;101903.94;5076472;28;874;-61
2022/05/19 06:44:39;;;;;;;;;;;;;;;17.79;44.64;101911.06;5076159;28;1023;-59
2022/05/19 06:47:10;;;;;;;;;;;;;;;17.81;44.46;101913.56;5070924;28;910;-61
2022/05/19 06:49:36;;;;;;;;;;;;;;;17.82;44.55;101911.63;5070094;28;1239;-61
2022/05/19 06:52:02;;;;;;;;;;;;;;;17.79;44.58;101908.31;5066608;28;939;-57
2022/05/19 06:54:27;;;;;;;;;;;;;;;17.76;44.45;101914.31;5069811;28;1906;-59
2022/05/19 06:56:53;;;;;;;;;;;;;;;17.78;44.57;101912.13;5058159;28;833;-57
2022/05/19 06:59:19;;;;;;;;;;;;;;;17.83;44.42;101894.88;5057569;28;1004;-56
2022/05/19 07:01:45;;;;;;;;;;;;;;;17.87;44.96;101903.44;5065360;28;1060;-59
2022/05/19 07:04:10;;;;;;;;;;;;;;;17.87;44.88;101906.19;5071459;28;1242;-60
2022/05/19 07:06:36;;;;;;;;;;;;;;;17.86;44.81;101907.28;5065750;28;1170;-58
2022/05/19 07:09:01;;;;;;;;;;;;;;;17.89;44.96;101913.13;5064335;28;1293;-58
2022/05/19 07:11:26;;;;;;;;;;;;;;;17.90;45.20;101913.94;5066972;28;1127;-61
2022/05/19 07:13:53;;;;;;;;;;;;;;;17.87;45.28;101909.78;5062972;28;1910;-61
2022/05/19 07:16:18;;;;;;;;;;;;;;;17.88;44.71;101911.44;5066871;28;859;-60
2022/05/19 07:18:44;;;;;;;;;;;;;;;17.86;44.75;101912.78;5056238;28;917;-61
2022/05/19 07:21:10;;;;;;;;;;;;;;;17.88;44.52;101908.69;5057347;28;794;-61
2022/05/19 07:23:36;;;;;;;;;;;;;;;17.86;44.54;101916.34;5057044;28;805;-60
2022/05/19 07:26:01;;;;;;;;;;;;;;;17.90;44.07;101908.44;5064366;28;1040;-60
2022/05/19 07:28:28;;;;;;;;;;;;;;;17.95;43.95;101914.06;5061331;28;819;-60
2022/05/19 07:30:53;;;;;;;;;;;;;;;17.93;44.02;101918.97;5058574;28;882;-58
2022/05/19 07:33:19;;;;;;;;;;;;;;;17.80;44.21;101920.13;5072119;28;1305;-61
2022/05/19 07:35:47;;;;;;;;;;;;;;;17.85;44.04;101919.38;5075864;28;1909;-58
2022/05/19 07:38:14;;;;;;;;;;;;;;;17.87;44.57;101920.78;5057789;28;913;-60
2022/05/19 07:40:40;;;;;;;;;;;;;;;17.89;44.24;101921.38;5063811;28;1012;-61
2022/05/19 07:45:50;;;;;;;;;;;;;;;17.85;44.45;101920.22;5066008;28;1598;-61
2022/05/19 07:48:16;;;;;;;;;;;;;;;17.89;44.21;101926.03;5057594;28;967;-60
2022/05/19 07:50:41;;;;;;;;;;;;;;;17.89;44.18;101917.78;5056823;28;774;-64
2022/05/19 07:53:07;;;;;;;;;;;;;;;17.86;44.67;101929.28;5066443;28;1049;-65
2022/05/19 07:55:32;;;;;;;;;;;;;;;17.87;44.26;101920.78;5057159;28;1913;-60
2022/05/19 07:57:58;;;;;;;;;;;;;;;17.93;44.36;101924.47;5056610;28;775;-61
2022/05/19 08:00:23;;;;;;;;;;;;;;;17.89;44.72;101918.63;5058003;28;862;-62
2022/05/19 08:02:49;;;;;;;;;;;;;;;17.88;44.92;101918.84;5066312;28;1005;-59
2022/05/19 08:05:15;;;;;;;;;;;;;;;17.95;45.10;101928.63;5061403;28;1114;-59
2022/05/19 08:07:40;;;;;;;;;;;;;;;17.96;45.18;101910.19;5066346;28;1104;-61
2022/05/19 08:10:21;;;;;;;;;;;;;;;17.94;44.79;101910.44;5062126;28;1092;-61
2022/05/19 08:15:36;;;;;;;;;;;;;;;17.99;44.20;101922.63;5069088;28;1909;-58
2022/05/19 08:18:05;;;;;;;;;;;;;;;18.02;44.36;101916.59;5063468;28;1190;-62
2022/05/19 08:20:31;;;;;;;;;;;;;;;18.06;44.20;101924.09;5072916;28;758;-61
2022/05/19 08:22:56;;;;;;;;;;;;;;;18.14;44.29;101909.03;5074129;28;790;-62
2022/05/19 08:25:25;;;;;;;;;;;;;;;18.23;44.30;101917.66;5075388;28;797;-62
2022/05/19 08:27:51;;;;;;;;;;;;;;;18.15;44.27;101923.66;5074865;28;941;-61
2022/05/19 08:30:16;;;;;;;;;;;;;;;18.05;43.46;101916.94;5071689;28;813;-62
2022/05/19 08:32:42;;;;;;;;;;;;;;;18.01;42.60;101921.28;5065145;28;878;-59
2022/05/19 08:35:09;;;;;;;;;;;;;;;17.83;41.92;101918.81;5059295;28;1905;-59
2022/05/19 08:37:34;;;;;;;;;;;;;;;17.74;41.21;101923.88;5061510;28;1107;-61
2022/05/19 08:40:00;;;;;;;;;;;;;;;17.56;40.72;101919.53;5070206;28;1028;-61
2022/05/19 08:42:26;;;;;;;;;;;;;;;17.49;41.03;101924.34;5078633;28;823;-60
2022/05/19 08:44:53;;;;;;;;;;;;;;;17.37;40.83;101908.78;5063620;28;928;-64
2022/05/19 08:47:20;;;;;;;;;;;;;;;17.54;40.92;101916.19;5054521;28;969;-64
2022/05/19 08:49:46;;;;;;;;;;;;;;;17.56;41.11;101919.53;5073080;28;1099;-66
2022/05/19 08:52:12;;;;;;;;;;;;;;;17.46;40.58;101900.97;5073470;28;1249;-64
2022/05/19 08:54:38;;;;;;;;;;;;;;;17.38;40.25;101909.63;5066799;28;1980;-66
2022/05/19 08:57:24;;;;;;;;;;;;;;;17.25;40.07;101911.63;5064681;28;1361;-65
2022/05/19 09:00:28;;;;;;;;;;;;;;;17.26;39.71;101910.56;5068337;28;1590;-67
2022/05/19 09:02:54;;;;;;;;;;;;;;;17.21;40.14;101901.41;5017162;28;1129;-61
2022/05/19 09:05:22;;;;;;;;;;;;;;;17.16;40.16;101904.88;5017321;28;897;-58
2022/05/19 09:07:57;;;;;;;;;;;;;;;17.42;41.86;101903.38;5046371;28;963;-62
2022/05/19 09:10:26;;;;;;;;;;;;;;;17.81;43.83;101904.44;5050359;28;814;-62
2022/05/19 09:12:55;;;;;;;;;;;;;;;18.06;45.52;101910.34;5054604;28;1066;-59
2022/05/19 09:15:20;;;;;;;;;;;;;;;18.32;46.77;101905.13;5069866;28;1910;-60
2022/05/19 09:17:46;;;;;;;;;;;;;;;18.10;48.45;101896.88;5064953;28;1100;-59
2022/05/19 09:20:12;;;;;;;;;;;;;;;17.72;49.44;101899.38;5061985;28;904;-61
2022/05/19 09:22:37;;;;;;;;;;;;;;;17.17;50.23;101905.72;5064039;28;1308;-61
2022/05/19 09:25:04;;;;;;;;;;;;;;;16.62;50.89;101893.47;5077868;28;941;-64
2022/05/19 09:27:30;;;;;;;;;;;;;;;17.48;47.70;101892.47;5073717;28;1218;-62
2022/05/19 09:29:56;;;;;;;;;;;;;;;17.77;46.30;101898.66;5060186;28;1275;-63
2022/05/19 09:32:37;;;;;;;;;;;;;;;17.89;45.65;101902.13;5068444;28;810;-63
2022/05/19 09:35:07;;;;;;;;;;;;;;;18.00;45.07;101897.59;5070071;28;1970;-62
2022/05/19 09:37:37;;;;;;;;;;;;;;;18.01;44.51;101902.00;5067766;28;1353;-66
2022/05/19 09:40:11;;;;;;;;;;;;;;;17.95;44.63;101894.78;5065953;28;904;-61
2022/05/19 09:42:58;;;;;;;;;;;;;;;18.01;44.24;101893.75;5073207;28;1281;-62
2022/05/19 09:45:25;;;;;;;;;;;;;;;18.05;44.38;101894.91;5064345;28;1781;-62
2022/05/19 09:48:01;;;;;;;;;;;;;;;18.15;44.14;101887.88;5068031;28;912;-62
2022/05/19 09:50:29;;;;;;;;;;;;;;;18.18;44.19;101892.84;5040992;28;1209;-64
2022/05/19 09:53:04;;;;;;;;;;;;;;;18.18;44.17;101890.09;5058545;28;818;-60
2022/05/19 09:55:30;;;;;;;;;;;;;;;18.28;44.41;101879.19;5058526;28;1901;-56
2022/05/19 09:57:59;;;;;;;;;;;;;;;18.23;44.51;101876.38;5058687;28;849;-59
2022/05/19 10:00:43;;;;;;;;;;;;;;;18.19;45.09;101883.50;5063716;28;815;-62
2022/05/19 10:03:10;;;;;;;;;;;;;;;18.17;45.16;101880.16;5077578;28;911;-59
2022/05/19 10:05:42;;;;;;;;;;;;;;;18.27;45.64;101880.28;5077630;28;908;-60
2022/05/19 10:08:12;;;;;;;;;;;;;;;18.45;46.08;101874.44;5068011;28;1167;-59
2022/05/19 10:10:56;;;;;;;;;;;;;;;18.53;45.76;101875.88;5071778;28;782;-60
2022/05/19 10:13:24;;;;;;;;;;;;;;;18.51;45.33;101885.50;5061563;28;1035;-60
2022/05/19 10:15:53;;;;;;;;;;;;;;;18.40;44.29;101882.63;5059550;28;1905;-60
2022/05/19 10:18:30;;;;;;;;;;;;;;;18.20;43.41;101876.91;5058700;28;1358;-63
2022/05/19 10:21:16;;;;;;;;;;;;;;;18.04;42.17;101876.72;5061264;28;794;-61
2022/05/19 10:24:07;;;;;;;;;;;;;;;17.90;41.83;101864.41;5039599;28;1036;-59
2022/05/19 10:26:51;;;;;;;;;;;;;;;17.86;41.30;101879.78;5056299;28;1175;-67
2022/05/19 10:32:19;;;;;;;;;;;;;;;17.73;41.15;101868.03;5069594;28;1222;-60
2022/05/19 10:35:02;;;;;;;;;;;;;;;17.56;40.88;101875.53;5068517;28;1972;-64
2022/05/19 10:37:36;;;;;;;;;;;;;;;17.56;40.45;101864.53;5068343;28;1048;-64
2022/05/19 10:40:07;;;;;;;;;;;;;;;17.44;40.16;101851.69;5045788;28;1143;-62
2022/05/19 10:42:36;;;;;;;;;;;;;;;17.48;40.46;101867.72;5074312;28;1099;-65
2022/05/19 10:45:21;;;;;;;;;;;;;;;17.42;40.47;101853.88;5057504;28;967;-62
2022/05/19 10:48:06;;;;;;;;;;;;;;;17.44;40.62;101862.69;5068742;28;1045;-62
2022/05/19 10:50:35;;;;;;;;;;;;;;;17.40;40.30;101857.97;5063321;28;861;-63
2022/05/19 10:53:09;;;;;;;;;;;;;;;17.32;40.16;101855.63;5058141;28;722;-65
2022/05/19 10:55:54;;;;;;;;;;;;;;;17.23;39.92;101844.25;5060356;28;1996;-67
2022/05/19 10:58:34;;;;;;;;;;;;;;;17.27;40.11;101848.97;5064287;28;1179;-62
2022/05/19 11:01:08;;;;;;;;;;;;;;;17.33;40.42;101855.38;5064255;28;1195;-65
2022/05/19 11:03:39;;;;;;;;;;;;;;;17.42;41.38;101847.56;5065647;28;1056;-64
2022/05/19 11:06:15;;;;;;;;;;;;;;;17.55;42.14;101854.59;5072555;28;1308;-61
2022/05/19 11:08:59;;;;;;;;;;;;;;;17.64;43.30;101844.81;5058651;28;822;-63
2022/05/19 11:11:33;;;;;;;;;;;;;;;17.78;44.20;101845.25;5069478;28;1048;-61
2022/05/19 11:13:58;;;;;;;;;;;;;;;17.77;44.37;101844.44;5047960;28;1989;-62
2022/05/19 11:16:31;;;;;;;;;;;;;;;17.90;44.64;101834.97;5068551;28;1516;-61
2022/05/19 11:19:11;;;;;;;;;;;;;;;17.96;45.07;101833.13;5061191;28;775;-61
2022/05/19 11:21:41;;;;;;;;;;;;;;;18.01;45.32;101829.63;5061786;28;822;-64
2022/05/19 11:24:13;;;;;;;;;;;;;;;17.99;45.62;101837.28;5057315;28;947;-69
2022/05/19 11:26:38;;;;;;;;;;;;;;;18.09;45.78;101840.16;5056895;28;845;-64
2022/05/19 11:29:06;;;;;;;;;;;;;;;18.18;45.66;101826.78;5059886;28;1008;-61
2022/05/19 11:31:35;;;;;;;;;;;;;;;18.19;45.77;101818.28;5068899;28;1242;-62
2022/05/19 11:34:01;;;;;;;;;;;;;;;18.23;45.97;101830.44;5047161;28;1906;-63
2022/05/19 11:36:45;;;;;;;;;;;;;;;18.32;45.73;101816.19;5054549;28;1361;-67
2022/05/19 11:39:20;;;;;;;;;;;;;;;18.31;45.55;101826.34;5069468;28;988;-68
2022/05/19 11:41:45;;;;;;;;;;;;;;;18.31;45.56;101826.34;5059592;28;973;-63
2022/05/19 11:44:18;;;;;;;;;;;;;;;18.38;45.63;101824.22;5064763;28;1111;-61
2022/05/19 11:46:46;;;;;;;;;;;;;;;18.46;45.41;101809.16;5043466;28;1074;-61
2022/05/19 11:55:19;;;;;;;;;;;;;;;18.52;45.32;101804.53;5067524;28;1909;-65
2022/05/19 11:58:09;;;;;;;;;;;;;;;18.49;45.21;101813.31;5051908;28;1040;-70
2022/05/19 12:00:37;;;;;;;;;;;;;;;18.57;45.38;101818.38;5070852;28;1024;-66
2022/05/19 12:03:26;;;;;;;;;;;;;;;18.45;44.80;101811.09;5066931;28;1242;-67
2022/05/19 12:05:53;;;;;;;;;;;;;;;18.24;44.00;101800.97;5019842;28;1213;-66
2022/05/19 12:08:25;;;;;;;;;;;;;;;18.12;42.93;101801.94;5063058;28;1036;-64
2022/05/19 12:10:53;;;;;;;;;;;;;;;17.99;42.50;101802.34;5044090;28;1250;-65
2022/05/19 12:13:21;;;;;;;;;;;;;;;18.05;42.33;101801.31;5041134;28;1191;-64
2022/05/19 12:15:53;;;;;;;;;;;;;;;18.02;42.19;101792.75;5051366;28;1969;-64
2022/05/19 12:18:27;;;;;;;;;;;;;;;18.13;41.32;101778.84;5075058;28;1052;-67
2022/05/19 12:21:02;;;;;;;;;;;;;;;17.97;41.23;101788.03;5068571;28;952;-66
2022/05/19 12:23:27;;;;;;;;;;;;;;;18.11;40.72;101785.69;5075834;28;757;-62
2022/05/19 12:25:54;;;;;;;;;;;;;;;17.90;40.84;101776.38;5075731;28;851;-62
2022/05/19 12:28:20;;;;;;;;;;;;;;;17.81;40.58;101788.91;5054105;28;1110;-69
2022/05/19 12:33:50;;;;;;;;;;;;;;;17.70;40.37;101780.53;5062637;28;1398;-64
2022/05/19 12:36:31;;;;;;;;;;;;;;;17.60;40.43;101766.69;5066963;28;1906;-65
2022/05/19 12:39:10;;;;;;;;;;;;;;;17.64;40.10;101762.28;5070075;28;1067;-65
2022/05/19 12:41:58;;;;;;;;;;;;;;;17.68;40.09;101757.13;5064929;28;1277;-62
2022/05/19 12:44:29;;;;;;;;;;;;;;;17.52;40.38;101764.38;5018696;28;1339;-65
2022/05/19 12:46:58;;;;;;;;;;;;;;;17.49;40.35;101757.47;5039285;28;1099;-62
2022/05/19 12:49:25;;;;;;;;;;;;;;;17.51;40.65;101759.94;5056210;28;882;-65
2022/05/19 12:51:56;;;;;;;;;;;;;;;17.53;40.45;101755.00;5055879;28;1002;-67
2022/05/19 12:54:23;;;;;;;;;;;;;;;17.47;40.56;101754.13;5059882;28;1913;-65
2022/05/19 12:57:20;;;;;;;;;;;;;;;17.44;40.77;101744.44;5055979;28;834;-66
2022/05/19 13:00:07;;;;;;;;;;;;;;;17.69;41.63;101745.84;5070984;28;1331;-65
2022/05/19 13:02:46;;;;;;;;;;;;;;;17.96;43.65;101753.34;5073417;28;1091;-64
2022/05/19 13:05:19;;;;;;;;;;;;;;;18.22;45.29;101751.66;5050199;28;1190;-65
2022/05/19 13:07:47;;;;;;;;;;;;;;;18.51;46.58;101742.28;5071034;28;1270;-65
2022/05/19 13:10:31;;;;;;;;;;;;;;;18.64;47.87;101741.84;5044892;28;1278;-63
2022/05/19 13:13:15;;;;;;;;;;;;;;;18.71;47.70;101736.94;5056218;28;742;-64
2022/05/19 13:15:54;;;;;;;;;;;;;;;18.51;46.59;101734.84;5060866;28;1992;-61
2022/05/19 13:18:21;;;;;;;;;;;;;;;18.34;45.13;101723.13;5058420;28;870;-65